createdAt,value
2023-02-24T00:02:00.460Z,95.90
2023-02-24T00:04:29.921Z,95.80
2023-02-24T00:06:57.190Z,95.60
2023-02-24T00:09:27.848Z,95.20
2023-02-24T00:11:57.911Z,94.90
2023-02-24T00:14:28.713Z,94.90
2023-02-24T00:16:59.048Z,94.90
2023-02-24T00:19:29.500Z,94.70
2023-02-24T00:21:56.640Z,94.60
2023-02-24T00:24:23.771Z,94.50
2023-02-24T00:26:59.682Z,94.50
2023-02-24T00:29:29.238Z,94.70
2023-02-24T00:32:01.510Z,94.90
2023-02-24T00:34:33.994Z,95.00
2023-02-24T00:37:02.006Z,95.20
2023-02-24T00:39:30.894Z,95.40
2023-02-24T00:42:04.779Z,95.60
2023-02-24T00:44:38.920Z,95.70
2023-02-24T00:47:07.722Z,95.80
2023-02-24T00:49:36.142Z,95.80
2023-02-24T00:52:05.322Z,95.90
2023-02-24T00:54:36.721Z,96.20
2023-02-24T00:57:08.305Z,95.80
2023-02-24T00:59:36.801Z,95.90
2023-02-24T01:02:07.295Z,96.00
2023-02-24T01:04:37.663Z,96.20
2023-02-24T01:07:11.002Z,96.20
2023-02-24T01:09:39.900Z,96.30
2023-02-24T01:12:30.552Z,96.40
2023-02-24T01:14:57.871Z,96.40
2023-02-24T01:17:25.811Z,96.50
2023-02-24T01:19:53.871Z,96.60
2023-02-24T01:22:23.990Z,96.60
2023-02-24T01:24:52.338Z,96.70
2023-02-24T01:27:19.771Z,96.80
2023-02-24T01:29:48.477Z,96.90
2023-02-24T01:32:20.937Z,97.00
2023-02-24T01:34:52.162Z,97.10
2023-02-24T01:37:20.117Z,97.20
2023-02-24T01:39:48.038Z,97.30
2023-02-24T01:42:22.477Z,97.40
2023-02-24T01:44:55.323Z,97.40
2023-02-24T01:47:22.666Z,97.50
2023-02-24T01:49:54.401Z,97.60
2023-02-24T01:52:25.660Z,97.60
2023-02-24T01:55:23.652Z,97.60
2023-02-24T01:57:53.575Z,97.60
2023-02-24T02:00:45.672Z,97.50
2023-02-24T02:03:26.714Z,97.50
2023-02-24T02:06:01.106Z,97.50
2023-02-24T02:08:29.450Z,97.50
2023-02-24T02:11:05.193Z,97.60
2023-02-24T02:13:38.828Z,97.70
2023-02-24T02:16:21.488Z,97.70
2023-02-24T02:19:06.575Z,97.80
2023-02-24T02:21:44.520Z,97.80
2023-02-24T02:24:37.502Z,97.90
2023-02-24T02:27:29.477Z,97.90
2023-02-24T02:30:14.235Z,97.80
2023-02-24T02:33:01.840Z,97.90
2023-02-24T02:35:39.650Z,97.80
2023-02-24T02:38:27.941Z,97.80
2023-02-24T02:41:20.529Z,97.80
2023-02-24T02:43:57.250Z,97.90
2023-02-24T02:46:37.822Z,97.90
2023-02-24T02:49:17.839Z,97.80
2023-02-24T02:51:56.980Z,97.80
2023-02-24T02:54:55.111Z,97.90
2023-02-24T02:57:29.033Z,97.80
2023-02-24T03:00:13.091Z,97.80
2023-02-24T03:02:46.760Z,97.80
2023-02-24T03:05:20.307Z,97.80
2023-02-24T03:07:53.357Z,97.80
2023-02-24T03:10:27.872Z,97.70
2023-02-24T03:12:59.667Z,97.70
2023-02-24T03:15:31.654Z,97.70
2023-02-24T03:18:10.532Z,97.60
2023-02-24T03:21:14.971Z,97.50
2023-02-24T03:23:50.247Z,97.30
2023-02-24T03:26:21.823Z,97.10
2023-02-24T03:29:09.010Z,97.20
2023-02-24T03:31:47.290Z,97.20
2023-02-24T03:34:28.850Z,97.20
2023-02-24T03:36:56.948Z,97.30
2023-02-24T03:39:24.698Z,97.30
2023-02-24T03:42:27.520Z,97.30
2023-02-24T03:44:58.516Z,97.40
2023-02-24T03:47:26.699Z,97.30
2023-02-24T03:49:54.953Z,97.30
2023-02-24T03:52:49.033Z,97.30
2023-02-24T03:55:38.622Z,97.40
2023-02-24T03:58:15.477Z,97.30
2023-02-24T04:00:58.496Z,97.30
2023-02-24T04:03:40.672Z,97.20
2023-02-24T04:06:25.632Z,97.10
2023-02-24T04:09:05.595Z,97.10
2023-02-24T04:11:58.414Z,97.10
2023-02-24T04:14:33.665Z,97.00
2023-02-24T04:17:09.088Z,97.00
2023-02-24T04:19:42.791Z,97.10
2023-02-24T04:22:15.768Z,97.20
2023-02-24T04:24:48.999Z,97.20
2023-02-24T04:27:18.524Z,97.10
2023-02-24T04:29:53.494Z,97.20
2023-02-24T04:32:26.259Z,97.20
2023-02-24T04:34:53.489Z,97.20
2023-02-24T04:37:23.609Z,97.20
2023-02-24T04:39:51.151Z,97.20
2023-02-24T04:42:26.602Z,97.10
2023-02-24T04:44:54.073Z,97.10
2023-02-24T04:47:22.354Z,97.10
2023-02-24T04:49:51.064Z,97.20
2023-02-24T04:52:21.987Z,97.20
2023-02-24T04:54:51.206Z,97.10
2023-02-24T04:57:18.320Z,97.00
2023-02-24T04:59:47.049Z,97.00
2023-02-24T05:02:18.196Z,96.90
2023-02-24T05:04:49.767Z,96.80
2023-02-24T05:07:18.277Z,96.70
2023-02-24T05:09:49.301Z,96.70
2023-02-24T05:12:16.330Z,96.70
2023-02-24T05:14:44.111Z,96.70
2023-02-24T05:17:13.910Z,96.70
2023-02-24T05:19:59.996Z,96.70
2023-02-24T05:22:28.982Z,96.60
2023-02-24T05:24:57.767Z,96.40
2023-02-24T05:27:25.998Z,96.40
2023-02-24T05:29:54.735Z,96.20
2023-02-24T05:32:24.436Z,96.10
2023-02-24T05:34:55.717Z,96.40
2023-02-24T05:37:22.687Z,96.70
2023-02-24T05:39:49.565Z,96.90
2023-02-24T05:42:17.290Z,97.10
2023-02-24T05:44:44.251Z,97.20
2023-02-24T05:47:11.866Z,97.10
2023-02-24T05:49:39.713Z,97.00
2023-02-24T05:52:15.010Z,97.10
2023-02-24T05:54:44.193Z,97.10
2023-02-24T05:57:13.950Z,97.20
2023-02-24T05:59:43.153Z,97.20
2023-02-24T06:02:15.630Z,97.30
2023-02-24T06:04:51.127Z,97.30
2023-02-24T06:07:25.362Z,97.30
2023-02-24T06:09:56.707Z,97.30
2023-02-24T06:12:29.812Z,97.20
2023-02-24T06:15:00.484Z,97.30
2023-02-24T06:17:28.790Z,97.20
2023-02-24T06:19:56.096Z,97.20
2023-02-24T06:22:27.576Z,97.10
2023-02-24T06:24:57.018Z,97.10
2023-02-24T06:27:26.031Z,97.10
2023-02-24T06:29:54.902Z,97.00
2023-02-24T06:32:27.299Z,97.10
2023-02-24T06:34:58.173Z,97.00
2023-02-24T06:37:25.327Z,97.00
2023-02-24T06:39:52.911Z,96.90
2023-02-24T06:42:20.945Z,96.90
2023-02-24T06:44:48.030Z,96.80
2023-02-24T06:47:18.493Z,96.70
2023-02-24T06:49:45.794Z,96.30
2023-02-24T06:52:18.917Z,96.10
2023-02-24T06:54:49.657Z,96.20
2023-02-24T06:57:17.875Z,96.40
2023-02-24T06:59:46.585Z,96.40
2023-02-24T07:02:13.630Z,96.50
2023-02-24T07:04:44.147Z,96.50
2023-02-24T07:07:14.590Z,96.50
2023-02-24T07:09:42.731Z,96.50
2023-02-24T07:12:12.902Z,96.60
2023-02-24T07:14:40.711Z,96.70
2023-02-24T07:17:08.652Z,96.70
2023-02-24T07:19:38.042Z,96.80
2023-02-24T07:22:05.839Z,96.70
2023-02-24T07:24:41.374Z,96.70
2023-02-24T07:27:13.117Z,96.70
2023-02-24T07:29:40.618Z,96.50
2023-02-24T07:32:11.371Z,96.50
2023-02-24T07:34:40.706Z,96.40
2023-02-24T07:37:09.340Z,96.30
2023-02-24T07:39:39.477Z,96.20
2023-02-24T07:42:09.501Z,96.30
2023-02-24T07:44:45.375Z,96.20
2023-02-24T07:47:12.746Z,96.20
2023-02-24T07:49:41.224Z,96.20
2023-02-24T07:52:08.799Z,96.20
2023-02-24T07:54:37.306Z,96.00
2023-02-24T07:57:06.707Z,96.00
2023-02-24T07:59:38.102Z,95.90
2023-02-24T08:02:08.121Z,95.90
2023-02-24T08:04:36.492Z,95.70
2023-02-24T08:07:04.393Z,95.90
2023-02-24T08:09:46.159Z,95.90
2023-02-24T08:12:24.329Z,96.00
2023-02-24T08:14:54.094Z,96.00
2023-02-24T08:17:26.866Z,95.90
2023-02-24T08:20:14.132Z,95.50
2023-02-24T08:22:52.391Z,95.40
2023-02-24T08:25:35.924Z,95.30
2023-02-24T08:28:09.416Z,95.50
2023-02-24T08:30:39.753Z,95.60
2023-02-24T08:33:10.464Z,95.60
2023-02-24T08:35:39.452Z,95.40
2023-02-24T08:38:14.801Z,95.30
2023-02-24T08:40:52.857Z,95.00
2023-02-24T08:43:46.654Z,94.40
2023-02-24T08:46:25.632Z,93.90
2023-02-24T08:49:01.358Z,93.90
2023-02-24T08:51:30.366Z,93.90
2023-02-24T08:54:00.317Z,93.90
2023-02-24T08:56:34.990Z,93.70
2023-02-24T08:59:06.105Z,93.60
2023-02-24T09:01:39.291Z,93.60
2023-02-24T09:04:19.083Z,93.40
2023-02-24T09:06:50.262Z,93.10
2023-02-24T09:09:23.209Z,92.90
2023-02-24T09:11:56.162Z,93.00
2023-02-24T09:14:29.565Z,93.10
2023-02-24T09:17:11.813Z,93.10
2023-02-24T09:19:40.624Z,93.00
2023-02-24T09:22:21.370Z,93.00
2023-02-24T09:24:51.257Z,93.10
2023-02-24T09:27:18.394Z,93.10
2023-02-24T09:29:51.832Z,92.90
2023-02-24T09:32:18.979Z,92.70
2023-02-24T09:34:45.984Z,92.60
2023-02-24T09:37:27.098Z,92.10
2023-02-24T09:39:57.597Z,92.00
2023-02-24T09:42:29.296Z,92.20
2023-02-24T09:45:11.769Z,91.70
2023-02-24T09:47:55.861Z,91.40
2023-02-24T09:51:01.621Z,91.60
2023-02-24T09:53:29.482Z,91.90
2023-02-24T09:56:27.936Z,91.80
2023-02-24T09:59:12.811Z,91.90
2023-02-24T10:01:48.774Z,91.80
2023-02-24T10:04:21.468Z,91.90
2023-02-24T10:06:58.996Z,91.90
2023-02-24T10:09:40.662Z,92.00
2023-02-24T10:12:19.654Z,92.30
2023-02-24T10:15:19.351Z,92.20
2023-02-24T10:17:57.207Z,92.40
2023-02-24T10:20:40.574Z,92.50
2023-02-24T10:23:29.710Z,92.50
2023-02-24T10:26:30.545Z,92.80
2023-02-24T10:29:02.804Z,93.00
2023-02-24T10:31:46.364Z,93.20
2023-02-24T10:34:26.434Z,93.50
2023-02-24T10:36:53.614Z,93.50
2023-02-24T10:39:26.628Z,93.40
2023-02-24T10:41:59.678Z,93.50
2023-02-24T10:44:36.788Z,93.60
2023-02-24T10:47:12.914Z,93.40
2023-02-24T10:49:58.306Z,93.40
2023-02-24T10:52:50.491Z,93.50
2023-02-24T10:55:28.898Z,93.40
2023-02-24T10:58:16.215Z,93.20
2023-02-24T11:00:52.095Z,93.10
2023-02-24T11:03:41.238Z,93.10
2023-02-24T11:06:41.410Z,92.80
2023-02-24T11:09:28.852Z,93.10
2023-02-24T11:12:17.748Z,93.10
2023-02-24T11:15:15.872Z,92.80
2023-02-24T11:17:51.030Z,92.60
2023-02-24T11:20:42.305Z,92.50
2023-02-24T11:23:27.311Z,92.40
2023-02-24T11:26:04.727Z,92.40
2023-02-24T11:28:38.120Z,92.30
2023-02-24T11:31:33.103Z,92.00
2023-02-24T11:34:19.198Z,91.70
2023-02-24T11:36:56.630Z,91.50
2023-02-24T11:39:50.360Z,91.10
2023-02-24T11:42:39.090Z,90.90
2023-02-24T11:45:19.325Z,90.80
2023-02-24T11:47:52.252Z,90.60
2023-02-24T11:50:28.371Z,90.40
2023-02-24T11:52:58.199Z,90.00
2023-02-24T11:55:43.046Z,90.00
2023-02-24T11:58:44.440Z,89.40
2023-02-24T12:01:37.357Z,89.20
2023-02-24T12:04:29.798Z,88.60
2023-02-24T12:06:57.140Z,87.70
2023-02-24T12:09:30.556Z,87.50
2023-02-24T12:12:21.579Z,86.70
2023-02-24T12:14:56.167Z,86.30
2023-02-24T12:17:35.125Z,86.40
2023-02-24T12:20:20.128Z,86.30
2023-02-24T12:22:49.113Z,85.60
2023-02-24T12:25:19.296Z,85.80
2023-02-24T12:28:11.334Z,85.50
2023-02-24T12:30:49.354Z,84.60
2023-02-24T12:33:19.185Z,83.80
2023-02-24T12:36:10.295Z,82.50
2023-02-24T12:39:13.736Z,82.40
2023-02-24T12:41:57.549Z,81.30
2023-02-24T12:44:38.110Z,81.10
2023-02-24T12:47:11.796Z,80.30
2023-02-24T12:50:10.096Z,80.10
2023-02-24T12:52:46.946Z,79.80
2023-02-24T12:55:38.350Z,79.20
2023-02-24T12:58:25.251Z,78.90
2023-02-24T13:01:02.397Z,77.40
2023-02-24T13:03:51.536Z,76.30
2023-02-24T13:06:27.747Z,75.50
2023-02-24T13:09:03.994Z,75.20
2023-02-24T13:11:49.420Z,75.00
2023-02-24T13:14:27.503Z,75.20
2023-02-24T13:17:13.031Z,74.10
2023-02-24T13:19:43.431Z,73.60
2023-02-24T13:22:18.369Z,73.70
2023-02-24T13:24:54.372Z,73.30
2023-02-24T13:27:35.102Z,72.20
2023-02-24T13:30:18.496Z,72.80
2023-02-24T13:32:47.808Z,73.00
2023-02-24T13:35:18.134Z,73.10
2023-02-24T13:37:47.600Z,72.20
2023-02-24T13:40:23.754Z,71.40
2023-02-24T13:43:00.053Z,70.80
2023-02-24T13:45:31.925Z,70.50
2023-02-24T13:48:11.000Z,70.90
2023-02-24T13:50:59.308Z,71.40
2023-02-24T13:53:48.229Z,71.80
2023-02-24T13:56:34.386Z,72.00
2023-02-24T13:59:31.974Z,72.10
2023-02-24T14:02:04.159Z,72.20
2023-02-24T14:04:33.675Z,71.50
2023-02-24T14:07:11.830Z,71.50
2023-02-24T14:09:48.638Z,71.00
2023-02-24T14:12:27.206Z,71.10
2023-02-24T14:14:55.483Z,70.60
2023-02-24T14:17:32.313Z,70.90
2023-02-24T14:20:11.599Z,71.30
2023-02-24T14:22:50.617Z,71.20
2023-02-24T14:25:18.434Z,70.60
2023-02-24T14:27:48.750Z,70.70
2023-02-24T14:30:36.447Z,70.80
2023-02-24T14:33:06.119Z,71.00
2023-02-24T14:35:51.413Z,71.10
2023-02-24T14:38:41.722Z,69.80
2023-02-24T14:41:22.847Z,69.80
2023-02-24T14:43:50.941Z,69.60
2023-02-24T14:46:18.684Z,70.20
2023-02-24T14:48:46.428Z,70.60
2023-02-24T14:51:21.376Z,70.70
2023-02-24T14:53:55.142Z,70.50
2023-02-24T14:56:28.357Z,69.80
2023-02-24T14:59:02.646Z,69.90
2023-02-24T15:01:36.466Z,69.90
2023-02-24T15:04:20.783Z,70.50
2023-02-24T15:06:49.313Z,71.10
2023-02-24T15:09:24.378Z,71.10
2023-02-24T15:11:53.644Z,71.20
2023-02-24T15:14:32.008Z,71.20
2023-02-24T15:17:10.133Z,71.20
2023-02-24T15:19:54.410Z,71.20
2023-02-24T15:22:30.436Z,71.10
2023-02-24T15:25:16.511Z,71.00
2023-02-24T15:27:56.126Z,71.10
2023-02-24T15:30:36.640Z,71.00
2023-02-24T15:33:24.590Z,70.90
2023-02-24T15:35:58.321Z,70.80
2023-02-24T15:38:46.172Z,71.00
2023-02-24T15:41:14.670Z,71.50
2023-02-24T15:43:50.555Z,71.60
2023-02-24T15:46:32.827Z,71.70
2023-02-24T15:49:03.769Z,72.10
2023-02-24T15:51:37.230Z,72.40
2023-02-24T15:54:11.519Z,72.70
2023-02-24T15:56:39.581Z,72.90
2023-02-24T15:59:06.586Z,73.20
2023-02-24T16:01:34.510Z,73.30
2023-02-24T16:04:01.699Z,73.40
2023-02-24T16:06:29.082Z,73.50
2023-02-24T16:08:57.624Z,73.80
2023-02-24T16:11:31.772Z,74.00
2023-02-24T16:14:00.119Z,74.10
2023-02-24T16:16:28.275Z,74.20
2023-02-24T16:18:56.389Z,74.30
2023-02-24T16:21:23.388Z,74.50
2023-02-24T16:23:53.651Z,74.60
2023-02-24T16:26:22.958Z,75.10
2023-02-24T16:28:57.681Z,75.40
2023-02-24T16:31:26.668Z,75.70
2023-02-24T16:33:56.023Z,75.90
2023-02-24T16:36:28.354Z,76.30
2023-02-24T16:38:56.026Z,76.70
2023-02-24T16:41:23.863Z,77.10
2023-02-24T16:43:51.446Z,77.50
2023-02-24T16:46:22.827Z,77.80
2023-02-24T16:48:53.491Z,78.10
2023-02-24T16:51:22.031Z,78.60
2023-02-24T16:53:49.983Z,79.00
2023-02-24T16:56:17.305Z,79.30
2023-02-24T16:58:44.708Z,79.70
2023-02-24T17:01:19.443Z,80.00
2023-02-24T17:03:49.719Z,80.30
2023-02-24T17:06:16.797Z,80.40
2023-02-24T17:08:46.129Z,80.50
2023-02-24T17:11:17.389Z,80.70
2023-02-24T17:13:44.577Z,81.00
2023-02-24T17:16:11.924Z,81.00
2023-02-24T17:18:42.003Z,81.00
2023-02-24T17:21:13.862Z,81.00
2023-02-24T17:23:42.551Z,81.10
2023-02-24T17:26:14.065Z,81.10
2023-02-24T17:28:41.587Z,81.10
2023-02-24T17:31:08.896Z,81.00
2023-02-24T17:33:36.410Z,81.00
2023-02-24T17:36:04.241Z,81.00
2023-02-24T17:38:31.393Z,80.90
2023-02-24T17:40:58.422Z,80.90
2023-02-24T17:43:25.556Z,80.90
2023-02-24T17:45:53.217Z,80.90
2023-02-24T17:48:21.066Z,80.90
2023-02-24T17:50:50.112Z,80.80
2023-02-24T17:53:17.150Z,80.80
2023-02-24T17:56:01.542Z,80.70
2023-02-24T17:58:32.710Z,80.60
2023-02-24T18:01:02.312Z,80.60
2023-02-24T18:03:30.646Z,80.70
2023-02-24T18:06:03.170Z,80.90
2023-02-24T18:08:33.355Z,81.10
2023-02-24T18:11:01.038Z,81.30
2023-02-24T18:13:28.974Z,81.60
2023-02-24T18:15:56.067Z,81.80
2023-02-24T18:18:24.011Z,82.10
2023-02-24T18:20:51.243Z,82.30
2023-02-24T18:23:18.547Z,82.40
2023-02-24T18:25:45.736Z,82.60
2023-02-24T18:28:12.863Z,82.80
2023-02-24T18:30:40.313Z,82.80
2023-02-24T18:33:07.771Z,82.80
2023-02-24T18:35:36.555Z,83.00
2023-02-24T18:38:04.803Z,83.00
2023-02-24T18:40:32.032Z,83.30
2023-02-24T18:42:59.627Z,83.70
2023-02-24T18:45:26.554Z,84.00
2023-02-24T18:47:53.957Z,84.30
2023-02-24T18:50:25.281Z,84.60
2023-02-24T18:52:54.225Z,84.40
2023-02-24T18:55:22.303Z,84.90
2023-02-24T18:57:49.476Z,85.10
2023-02-24T19:00:16.935Z,85.10
2023-02-24T19:02:44.085Z,85.40
2023-02-24T19:05:11.307Z,85.50
2023-02-24T19:07:40.886Z,85.70
2023-02-24T19:10:08.541Z,86.00
2023-02-24T19:12:36.410Z,86.10
2023-02-24T19:15:04.311Z,86.50
2023-02-24T19:17:32.380Z,86.90
2023-02-24T19:19:59.662Z,86.80
2023-02-24T19:22:27.045Z,86.80
2023-02-24T19:24:53.937Z,86.70
2023-02-24T19:27:21.179Z,86.90
2023-02-24T19:29:48.232Z,87.00
2023-02-24T19:32:15.373Z,87.10
2023-02-24T19:34:42.994Z,87.40
2023-02-24T19:37:10.153Z,87.40
2023-02-24T19:39:37.171Z,87.30
2023-02-24T19:42:07.272Z,87.40
2023-02-24T19:44:34.416Z,87.40
2023-02-24T19:47:01.588Z,87.30
2023-02-24T19:49:33.093Z,87.30
2023-02-24T19:52:00.874Z,87.30
2023-02-24T19:54:29.014Z,87.20
2023-02-24T19:56:58.467Z,87.10
2023-02-24T19:59:25.558Z,87.40
2023-02-24T20:01:54.397Z,87.70
2023-02-24T20:04:23.240Z,88.20
2023-02-24T20:06:50.464Z,88.50
2023-02-24T20:09:21.429Z,88.70
2023-02-24T20:11:50.967Z,88.90
2023-02-24T20:14:19.910Z,89.00
2023-02-24T20:16:47.895Z,89.00
2023-02-24T20:19:15.937Z,89.10
2023-02-24T20:21:43.098Z,89.20
2023-02-24T20:24:16.106Z,89.40
2023-02-24T20:26:47.305Z,89.10
2023-02-24T20:29:16.791Z,88.80
2023-02-24T20:31:43.823Z,89.00
2023-02-24T20:34:11.222Z,89.30
2023-02-24T20:36:38.164Z,89.60
2023-02-24T20:39:06.906Z,90.00
2023-02-24T20:41:34.782Z,90.10
2023-02-24T20:44:02.113Z,90.20
2023-02-24T20:46:31.499Z,90.40
2023-02-24T20:49:05.550Z,90.50
2023-02-24T20:51:34.832Z,90.50
2023-02-24T20:54:02.079Z,90.60
2023-02-24T20:56:34.070Z,90.80
2023-02-24T20:59:02.538Z,90.70
2023-02-24T21:01:32.228Z,90.50
2023-02-24T21:03:59.648Z,90.40
2023-02-24T21:06:28.865Z,90.40
2023-02-24T21:08:56.998Z,90.30
2023-02-24T21:11:25.215Z,90.30
2023-02-24T21:13:53.745Z,90.40
2023-02-24T21:16:22.914Z,90.40
2023-02-24T21:18:51.591Z,90.50
2023-02-24T21:21:19.887Z,90.70
2023-02-24T21:23:48.223Z,90.80
2023-02-24T21:26:16.077Z,90.90
2023-02-24T21:28:43.552Z,90.80
2023-02-24T21:31:12.547Z,90.80
2023-02-24T21:33:39.899Z,90.80
2023-02-24T21:36:10.835Z,90.80
2023-02-24T21:38:38.032Z,90.70
2023-02-24T21:41:08.021Z,90.70
2023-02-24T21:43:35.676Z,90.90
2023-02-24T21:46:05.588Z,91.00
2023-02-24T21:48:34.144Z,91.30
2023-02-24T21:51:06.069Z,91.30
2023-02-24T21:53:37.305Z,91.30
2023-02-24T21:56:10.992Z,91.10
2023-02-24T21:58:39.638Z,91.30
2023-02-24T22:01:17.029Z,91.40
2023-02-24T22:03:45.612Z,91.70
2023-02-24T22:06:14.789Z,91.90
2023-02-24T22:08:45.638Z,92.10
2023-02-24T22:11:15.603Z,92.10
2023-02-24T22:13:45.649Z,92.10
2023-02-24T22:16:24.005Z,92.20
2023-02-24T22:18:52.523Z,92.10
2023-02-24T22:21:22.420Z,92.20
2023-02-24T22:23:53.141Z,92.10
2023-02-24T22:26:23.706Z,92.10
2023-02-24T22:28:51.502Z,92.10
2023-02-24T22:31:22.355Z,91.90
2023-02-24T22:33:49.848Z,91.90
2023-02-24T22:36:20.722Z,92.00
2023-02-24T22:38:48.223Z,92.20
2023-02-24T22:41:17.733Z,92.30
2023-02-24T22:43:45.077Z,92.40
2023-02-24T22:46:15.221Z,92.40
2023-02-24T22:48:42.880Z,92.50
2023-02-24T22:51:12.147Z,92.50
2023-02-24T22:53:41.344Z,92.40
2023-02-24T22:56:11.537Z,92.50
2023-02-24T22:58:39.064Z,92.60
2023-02-24T23:01:15.060Z,92.60
2023-02-24T23:03:46.427Z,92.60
2023-02-24T23:06:19.393Z,92.70
2023-02-24T23:08:48.149Z,92.70
2023-02-24T23:11:20.160Z,92.70
2023-02-24T23:13:49.886Z,92.60
2023-02-24T23:16:23.365Z,92.50
2023-02-24T23:18:53.336Z,92.60
2023-02-24T23:21:47.071Z,92.70
2023-02-24T23:24:15.479Z,92.80
2023-02-24T23:26:54.341Z,92.90
2023-02-24T23:29:24.533Z,93.00
2023-02-24T23:31:52.493Z,93.00
2023-02-24T23:34:21.143Z,93.10
2023-02-24T23:36:48.994Z,93.10
2023-02-24T23:39:20.676Z,93.20
2023-02-24T23:41:50.128Z,93.10
2023-02-24T23:44:17.096Z,93.00
2023-02-24T23:46:44.396Z,93.00
2023-02-24T23:49:11.517Z,93.00
2023-02-24T23:51:48.104Z,93.00
2023-02-24T23:54:18.178Z,93.10
2023-02-24T23:56:46.712Z,93.10
2023-02-24T23:59:14.163Z,93.40
